sensor_id;sensor_type;location;lat;lon;timestamp;pressure;altitude;pressure_sealevel;temperature;humidity
39487;BME280;25173;50.430;18.926;2023-02-13T00:00:49;100193.41;;;8.07;65.16
39487;BME280;25173;50.430;18.926;2023-02-13T00:03:50;100185.69;;;8.11;65.06
39487;BME280;25173;50.430;18.926;2023-02-13T00:06:50;100184.63;;;8.18;64.90
39487;BME280;25173;50.430;18.926;2023-02-13T00:09:51;100194.03;;;8.23;64.73
39487;BME280;25173;50.430;18.926;2023-02-13T00:12:51;100198.00;;;8.13;64.58
39487;BME280;25173;50.430;18.926;2023-02-13T00:16:00;100192.97;;;8.10;64.80
39487;BME280;25173;50.430;18.926;2023-02-13T00:19:01;100193.41;;;8.07;64.76
39487;BME280;25173;50.430;18.926;2023-02-13T00:22:01;100197.78;;;8.02;64.81
39487;BME280;25173;50.430;18.926;2023-02-13T00:25:03;100192.97;;;8.04;64.95
39487;BME280;25173;50.430;18.926;2023-02-13T00:28:04;100192.16;;;8.03;64.57
39487;BME280;25173;50.430;18.926;2023-02-13T00:31:10;100194.22;;;8.01;64.67
39487;BME280;25173;50.430;18.926;2023-02-13T00:34:11;100187.13;;;7.94;64.84
39487;BME280;25173;50.430;18.926;2023-02-13T00:37:12;100196.72;;;7.90;64.89
39487;BME280;25173;50.430;18.926;2023-02-13T00:40:12;100185.03;;;7.89;64.90
39487;BME280;25173;50.430;18.926;2023-02-13T00:43:13;100194.84;;;7.90;65.04
39487;BME280;25173;50.430;18.926;2023-02-13T00:46:14;100195.44;;;7.86;65.04
39487;BME280;25173;50.430;18.926;2023-02-13T00:49:15;100191.09;;;7.85;65.14
39487;BME280;25173;50.430;18.926;2023-02-13T00:52:16;100186.72;;;7.90;65.44
39487;BME280;25173;50.430;18.926;2023-02-13T00:55:17;100175.22;;;7.95;65.49
39487;BME280;25173;50.430;18.926;2023-02-13T00:58:18;100181.94;;;7.99;65.41
39487;BME280;25173;50.430;18.926;2023-02-13T01:01:19;100175.88;;;8.03;65.40
39487;BME280;25173;50.430;18.926;2023-02-13T01:04:20;100174.63;;;7.99;65.18
39487;BME280;25173;50.430;18.926;2023-02-13T01:07:21;100172.94;;;7.92;65.26
39487;BME280;25173;50.430;18.926;2023-02-13T01:10:21;100172.50;;;7.82;65.40
39487;BME280;25173;50.430;18.926;2023-02-13T01:13:22;100169.16;;;7.73;65.54
39487;BME280;25173;50.430;18.926;2023-02-13T01:16:23;100164.75;;;7.65;65.67
39487;BME280;25173;50.430;18.926;2023-02-13T01:19:23;100166.03;;;7.63;65.83
39487;BME280;25173;50.430;18.926;2023-02-13T01:22:25;100175.41;;;7.60;66.00
39487;BME280;25173;50.430;18.926;2023-02-13T01:25:26;100166.22;;;7.55;66.18
39487;BME280;25173;50.430;18.926;2023-02-13T01:28:27;100157.66;;;7.58;66.19
39487;BME280;25173;50.430;18.926;2023-02-13T01:31:28;100162.69;;;7.61;66.16
39487;BME280;25173;50.430;18.926;2023-02-13T01:34:28;100163.31;;;7.63;66.24
39487;BME280;25173;50.430;18.926;2023-02-13T01:37:29;100152.03;;;7.66;66.26
39487;BME280;25173;50.430;18.926;2023-02-13T01:40:30;100154.16;;;7.70;66.38
39487;BME280;25173;50.430;18.926;2023-02-13T01:43:48;100148.09;;;7.75;66.44
39487;BME280;25173;50.430;18.926;2023-02-13T01:46:49;100143.91;;;7.72;66.50
39487;BME280;25173;50.430;18.926;2023-02-13T01:49:57;100137.03;;;7.70;66.74
39487;BME280;25173;50.430;18.926;2023-02-13T01:53:00;100143.25;;;7.64;66.87
39487;BME280;25173;50.430;18.926;2023-02-13T01:56:12;100131.38;;;7.65;67.05
39487;BME280;25173;50.430;18.926;2023-02-13T01:59:23;100136.19;;;7.69;66.87
39487;BME280;25173;50.430;18.926;2023-02-13T02:02:26;100127.63;;;7.66;67.05
39487;BME280;25173;50.430;18.926;2023-02-13T02:05:30;100135.38;;;7.69;66.87
39487;BME280;25173;50.430;18.926;2023-02-13T02:08:33;100129.09;;;7.62;66.97
39487;BME280;25173;50.430;18.926;2023-02-13T02:15:00;100137.63;;;7.59;67.05
39487;BME280;25173;50.430;18.926;2023-02-13T02:18:13;100127.81;;;7.58;67.03
39487;BME280;25173;50.430;18.926;2023-02-13T02:34:40;100122.84;;;7.55;67.39
39487;BME280;25173;50.430;18.926;2023-02-13T02:37:59;100125.53;;;7.48;67.62
39487;BME280;25173;50.430;18.926;2023-02-13T02:44:55;100134.88;;;7.32;67.97
39487;BME280;25173;50.430;18.926;2023-02-13T02:48:14;100128.78;;;7.17;68.21
39487;BME280;25173;50.430;18.926;2023-02-13T02:55:04;100137.06;;;7.03;69.01
39487;BME280;25173;50.430;18.926;2023-02-13T03:01:35;100138.16;;;6.67;69.61
39487;BME280;25173;50.430;18.926;2023-02-13T03:04:57;100128.38;;;6.66;69.84
39487;BME280;25173;50.430;18.926;2023-02-13T03:08:18;100129.63;;;6.70;69.92
39487;BME280;25173;50.430;18.926;2023-02-13T03:11:41;100136.78;;;6.84;69.69
39487;BME280;25173;50.430;18.926;2023-02-13T03:15:02;100136.38;;;6.81;69.93
39487;BME280;25173;50.430;18.926;2023-02-13T03:18:03;100130.50;;;6.77;69.84
39487;BME280;25173;50.430;18.926;2023-02-13T03:21:49;100128.78;;;6.70;70.54
39487;BME280;25173;50.430;18.926;2023-02-13T03:39:14;100136.44;;;6.59;70.88
39487;BME280;25173;50.430;18.926;2023-02-13T03:42:36;100129.38;;;6.58;71.14
39487;BME280;25173;50.430;18.926;2023-02-13T03:45:41;100127.09;;;6.62;71.00
39487;BME280;25173;50.430;18.926;2023-02-13T03:48:53;100130.59;;;6.56;71.26
39487;BME280;25173;50.430;18.926;2023-02-13T03:52:24;100130.75;;;6.48;71.66
39487;BME280;25173;50.430;18.926;2023-02-13T03:55:32;100125.13;;;6.43;71.87
39487;BME280;25173;50.430;18.926;2023-02-13T03:58:53;100125.53;;;6.46;71.73
39487;BME280;25173;50.430;18.926;2023-02-13T04:02:19;100121.22;;;6.52;71.50
39487;BME280;25173;50.430;18.926;2023-02-13T04:05:24;100127.69;;;6.57;71.31
39487;BME280;25173;50.430;18.926;2023-02-13T04:08:27;100117.09;;;6.62;71.43
39487;BME280;25173;50.430;18.926;2023-02-13T04:11:38;100115.06;;;6.71;71.36
39487;BME280;25173;50.430;18.926;2023-02-13T04:14:57;100115.72;;;6.80;71.27
39487;BME280;25173;50.430;18.926;2023-02-13T04:21:03;100125.09;;;6.84;70.91
39487;BME280;25173;50.430;18.926;2023-02-13T04:24:05;100126.78;;;6.85;70.85
39487;BME280;25173;50.430;18.926;2023-02-13T04:27:06;100121.38;;;6.85;70.88
39487;BME280;25173;50.430;18.926;2023-02-13T04:30:07;100114.47;;;6.82;70.96
39487;BME280;25173;50.430;18.926;2023-02-13T04:33:08;100121.97;;;6.80;70.86
39487;BME280;25173;50.430;18.926;2023-02-13T04:36:09;100124.06;;;6.78;70.98
39487;BME280;25173;50.430;18.926;2023-02-13T04:39:10;100122.19;;;6.79;70.92
39487;BME280;25173;50.430;18.926;2023-02-13T04:42:11;100130.53;;;6.84;71.11
39487;BME280;25173;50.430;18.926;2023-02-13T04:45:11;100128.06;;;6.89;70.91
39487;BME280;25173;50.430;18.926;2023-02-13T04:48:12;100127.84;;;6.90;70.90
39487;BME280;25173;50.430;18.926;2023-02-13T04:51:12;100135.56;;;6.87;70.82
39487;BME280;25173;50.430;18.926;2023-02-13T04:54:13;100143.47;;;6.88;70.83
39487;BME280;25173;50.430;18.926;2023-02-13T04:57:14;100136.78;;;6.84;70.90
39487;BME280;25173;50.430;18.926;2023-02-13T05:00:15;100134.06;;;6.84;70.98
39487;BME280;25173;50.430;18.926;2023-02-13T05:03:15;100132.59;;;6.82;70.93
39487;BME280;25173;50.430;18.926;2023-02-13T05:06:16;100130.50;;;6.77;70.81
39487;BME280;25173;50.430;18.926;2023-02-13T05:09:16;100120.28;;;6.73;70.94
39487;BME280;25173;50.430;18.926;2023-02-13T05:12:17;100121.31;;;6.72;70.84
39487;BME280;25173;50.430;18.926;2023-02-13T05:15:18;100109.16;;;6.61;70.93
39487;BME280;25173;50.430;18.926;2023-02-13T05:18:19;100105.63;;;6.60;70.87
39487;BME280;25173;50.430;18.926;2023-02-13T05:21:20;100114.16;;;6.57;70.96
39487;BME280;25173;50.430;18.926;2023-02-13T05:24:40;100113.09;;;6.52;71.21
39487;BME280;25173;50.430;18.926;2023-02-13T05:27:40;100116.63;;;6.52;71.27
39487;BME280;25173;50.430;18.926;2023-02-13T05:30:41;100109.59;;;6.58;71.14
39487;BME280;25173;50.430;18.926;2023-02-13T05:33:41;100114.56;;;6.54;71.05
39487;BME280;25173;50.430;18.926;2023-02-13T05:36:42;100108.75;;;6.57;71.11
39487;BME280;25173;50.430;18.926;2023-02-13T05:39:42;100113.56;;;6.62;71.09
39487;BME280;25173;50.430;18.926;2023-02-13T05:42:43;100119.59;;;6.64;70.95
39487;BME280;25173;50.430;18.926;2023-02-13T05:45:43;100111.28;;;6.66;70.84
39487;BME280;25173;50.430;18.926;2023-02-13T05:48:44;100121.50;;;6.70;70.60
39487;BME280;25173;50.430;18.926;2023-02-13T05:51:45;100107.16;;;6.76;70.60
39487;BME280;25173;50.430;18.926;2023-02-13T05:54:46;100105.94;;;6.79;70.22
39487;BME280;25173;50.430;18.926;2023-02-13T05:57:47;100116.75;;;6.72;70.03
39487;BME280;25173;50.430;18.926;2023-02-13T06:00:47;100127.53;;;6.66;70.10
39487;BME280;25173;50.430;18.926;2023-02-13T06:03:48;100132.47;;;6.55;70.01
39487;BME280;25173;50.430;18.926;2023-02-13T06:06:49;100126.19;;;6.48;70.44
39487;BME280;25173;50.430;18.926;2023-02-13T06:09:50;100138.47;;;6.44;70.38
39487;BME280;25173;50.430;18.926;2023-02-13T06:12:50;100140.28;;;6.37;70.40
39487;BME280;25173;50.430;18.926;2023-02-13T06:15:51;100145.44;;;6.32;70.42
39487;BME280;25173;50.430;18.926;2023-02-13T06:18:52;100143.91;;;6.23;70.34
39487;BME280;25173;50.430;18.926;2023-02-13T06:21:53;100139.25;;;6.10;70.82
39487;BME280;25173;50.430;18.926;2023-02-13T06:24:53;100144.28;;;6.13;70.78
39487;BME280;25173;50.430;18.926;2023-02-13T06:27:54;100149.50;;;6.15;70.96
39487;BME280;25173;50.430;18.926;2023-02-13T06:30:54;100145.31;;;6.12;70.81
39487;BME280;25173;50.430;18.926;2023-02-13T06:33:55;100150.06;;;6.10;70.99
39487;BME280;25173;50.430;18.926;2023-02-13T06:36:56;100141.13;;;6.10;70.93
39487;BME280;25173;50.430;18.926;2023-02-13T06:39:56;100142.56;;;6.06;71.07
39487;BME280;25173;50.430;18.926;2023-02-13T06:42:57;100135.06;;;6.08;71.26
39487;BME280;25173;50.430;18.926;2023-02-13T06:45:58;100138.22;;;6.11;71.37
39487;BME280;25173;50.430;18.926;2023-02-13T06:48:58;100146.78;;;6.15;71.29
39487;BME280;25173;50.430;18.926;2023-02-13T06:51:59;100146.00;;;6.21;71.23
39487;BME280;25173;50.430;18.926;2023-02-13T06:54:59;100146.03;;;6.28;71.01
39487;BME280;25173;50.430;18.926;2023-02-13T06:58:00;100150.19;;;6.30;71.15
39487;BME280;25173;50.430;18.926;2023-02-13T07:01:01;100163.34;;;6.33;71.07
39487;BME280;25173;50.430;18.926;2023-02-13T07:04:01;100156.25;;;6.32;70.82
39487;BME280;25173;50.430;18.926;2023-02-13T07:07:02;100150.47;;;6.35;70.91
39487;BME280;25173;50.430;18.926;2023-02-13T07:10:04;100145.88;;;6.36;71.14
39487;BME280;25173;50.430;18.926;2023-02-13T07:13:06;100160.50;;;6.41;71.12
39487;BME280;25173;50.430;18.926;2023-02-13T07:16:06;100152.75;;;6.38;70.94
39487;BME280;25173;50.430;18.926;2023-02-13T07:19:07;100146.13;;;6.41;71.15
39487;BME280;25173;50.430;18.926;2023-02-13T07:22:08;100147.59;;;6.43;71.43
39487;BME280;25173;50.430;18.926;2023-02-13T07:25:08;100135.19;;;6.55;71.37
39487;BME280;25173;50.430;18.926;2023-02-13T07:28:09;100136.28;;;6.68;71.22
39487;BME280;25173;50.430;18.926;2023-02-13T07:31:09;100133.41;;;6.76;71.44
39487;BME280;25173;50.430;18.926;2023-02-13T07:34:10;100127.88;;;6.97;71.63
39487;BME280;25173;50.430;18.926;2023-02-13T07:37:11;100133.19;;;7.18;71.22
39487;BME280;25173;50.430;18.926;2023-02-13T07:40:12;100143.63;;;7.34;70.94
39487;BME280;25173;50.430;18.926;2023-02-13T07:43:12;100138.84;;;7.43;70.56
39487;BME280;25173;50.430;18.926;2023-02-13T07:46:13;100142.81;;;7.40;70.49
39487;BME280;25173;50.430;18.926;2023-02-13T07:49:13;100139.50;;;7.45;70.54
39487;BME280;25173;50.430;18.926;2023-02-13T07:52:14;100147.41;;;7.47;70.26
39487;BME280;25173;50.430;18.926;2023-02-13T07:55:15;100144.53;;;7.55;70.27
39487;BME280;25173;50.430;18.926;2023-02-13T07:58:15;100144.94;;;7.52;70.24
39487;BME280;25173;50.430;18.926;2023-02-13T08:01:16;100139.31;;;7.60;70.42
39487;BME280;25173;50.430;18.926;2023-02-13T08:04:17;100142.03;;;7.73;70.33
39487;BME280;25173;50.430;18.926;2023-02-13T08:07:17;100144.53;;;7.81;70.29
39487;BME280;25173;50.430;18.926;2023-02-13T08:10:18;100147.91;;;7.96;70.46
39487;BME280;25173;50.430;18.926;2023-02-13T08:13:38;100141.84;;;8.07;69.99
39487;BME280;25173;50.430;18.926;2023-02-13T08:16:39;100147.06;;;8.09;69.87
39487;BME280;25173;50.430;18.926;2023-02-13T08:19:39;100145.81;;;8.18;69.94
39487;BME280;25173;50.430;18.926;2023-02-13T08:22:40;100145.16;;;8.23;69.69
39487;BME280;25173;50.430;18.926;2023-02-13T08:25:41;100149.53;;;8.24;69.59
39487;BME280;25173;50.430;18.926;2023-02-13T08:28:42;100149.53;;;8.24;69.44
39487;BME280;25173;50.430;18.926;2023-02-13T08:31:46;100148.09;;;8.28;69.62
39487;BME280;25173;50.430;18.926;2023-02-13T08:34:47;100144.75;;;8.39;69.40
39487;BME280;25173;50.430;18.926;2023-02-13T08:37:52;100137.44;;;8.46;69.59
39487;BME280;25173;50.430;18.926;2023-02-13T08:40:55;100138.84;;;8.68;69.54
39487;BME280;25173;50.430;18.926;2023-02-13T08:43:56;100144.88;;;8.77;68.96
39487;BME280;25173;50.430;18.926;2023-02-13T08:46:57;100143.59;;;8.86;69.05
39487;BME280;25173;50.430;18.926;2023-02-13T08:49:57;100141.50;;;8.94;68.83
39487;BME280;25173;50.430;18.926;2023-02-13T08:52:58;100139.75;;;9.07;68.82
39487;BME280;25173;50.430;18.926;2023-02-13T08:55:59;100142.81;;;9.23;68.59
39487;BME280;25173;50.430;18.926;2023-02-13T08:58:59;100140.94;;;9.24;68.09
39487;BME280;25173;50.430;18.926;2023-02-13T09:02:00;100139.44;;;9.28;68.04
39487;BME280;25173;50.430;18.926;2023-02-13T09:05:00;100146.38;;;9.24;68.09
39487;BME280;25173;50.430;18.926;2023-02-13T09:08:01;100153.53;;;9.18;68.33
39487;BME280;25173;50.430;18.926;2023-02-13T09:11:03;100137.63;;;9.15;68.77
39487;BME280;25173;50.430;18.926;2023-02-13T09:14:06;100138.03;;;9.19;69.13
39487;BME280;25173;50.430;18.926;2023-02-13T09:17:07;100136.50;;;9.29;69.74
39487;BME280;25173;50.430;18.926;2023-02-13T09:20:08;100141.91;;;9.36;69.23
39487;BME280;25173;50.430;18.926;2023-02-13T09:23:08;100141.28;;;9.34;68.99
39487;BME280;25173;50.430;18.926;2023-02-13T09:26:11;100140.63;;;9.45;69.48
39487;BME280;25173;50.430;18.926;2023-02-13T09:29:12;100137.75;;;9.65;69.27
39487;BME280;25173;50.430;18.926;2023-02-13T09:32:13;100133.25;;;9.84;68.88
39487;BME280;25173;50.430;18.926;2023-02-13T09:35:14;100135.19;;;9.77;68.46
39487;BME280;25173;50.430;18.926;2023-02-13T09:38:14;100135.56;;;9.80;68.70
39487;BME280;25173;50.430;18.926;2023-02-13T09:41:35;100142.81;;;9.93;68.83
39487;BME280;25173;50.430;18.926;2023-02-13T09:44:41;100127.78;;;10.08;68.79
39487;BME280;25173;50.430;18.926;2023-02-13T09:47:44;100138.78;;;10.27;68.45
39487;BME280;25173;50.430;18.926;2023-02-13T09:50:45;100132.88;;;10.30;67.94
39487;BME280;25173;50.430;18.926;2023-02-13T09:53:52;100135.00;;;10.28;67.94
39487;BME280;25173;50.430;18.926;2023-02-13T10:00:40;100126.06;;;10.21;68.18
39487;BME280;25173;50.430;18.926;2023-02-13T10:07:09;100130.47;;;10.15;68.54
39487;BME280;25173;50.430;18.926;2023-02-13T10:16:52;100117.31;;;10.12;68.67
39487;BME280;25173;50.430;18.926;2023-02-13T10:23:21;100117.66;;;10.22;68.63
39487;BME280;25173;50.430;18.926;2023-02-13T10:26:27;100113.97;;;10.35;68.75
39487;BME280;25173;50.430;18.926;2023-02-13T10:30:01;100101.59;;;10.57;67.89
39487;BME280;25173;50.430;18.926;2023-02-13T10:33:19;100097.94;;;10.63;67.77
39487;BME280;25173;50.430;18.926;2023-02-13T10:36:24;100093.78;;;10.61;67.60
39487;BME280;25173;50.430;18.926;2023-02-13T10:39:28;100093.84;;;10.54;67.81
39487;BME280;25173;50.430;18.926;2023-02-13T10:42:43;100091.06;;;10.42;67.48
39487;BME280;25173;50.430;18.926;2023-02-13T10:46:06;100099.19;;;10.24;67.34
39487;BME280;25173;50.430;18.926;2023-02-13T10:53:12;100091.97;;;10.36;67.87
39487;BME280;25173;50.430;18.926;2023-02-13T10:56:20;100086.81;;;10.28;67.53
39487;BME280;25173;50.430;18.926;2023-02-13T10:59:49;100089.84;;;10.13;67.50
39487;BME280;25173;50.430;18.926;2023-02-13T11:02:55;100083.44;;;10.01;67.80
39487;BME280;25173;50.430;18.926;2023-02-13T11:05:57;100074.75;;;9.93;67.95
39487;BME280;25173;50.430;18.926;2023-02-13T11:08:58;100071.03;;;9.87;68.26
39487;BME280;25173;50.430;18.926;2023-02-13T11:15:31;100061.53;;;9.71;68.74
39487;BME280;25173;50.430;18.926;2023-02-13T11:18:48;100058.09;;;9.83;68.90
39487;BME280;25173;50.430;18.926;2023-02-13T11:22:10;100067.81;;;9.97;68.54
39487;BME280;25173;50.430;18.926;2023-02-13T11:25:24;100068.78;;;10.02;68.39
39487;BME280;25173;50.430;18.926;2023-02-13T11:28:27;100052.47;;;10.02;68.28
39487;BME280;25173;50.430;18.926;2023-02-13T11:34:33;100057.53;;;9.99;68.12
39487;BME280;25173;50.430;18.926;2023-02-13T11:37:33;100050.28;;;9.86;68.63
39487;BME280;25173;50.430;18.926;2023-02-13T11:40:34;100047.34;;;9.88;69.07
39487;BME280;25173;50.430;18.926;2023-02-13T11:43:49;100047.09;;;9.96;69.21
39487;BME280;25173;50.430;18.926;2023-02-13T11:46:54;100044.50;;;10.01;68.83
39487;BME280;25173;50.430;18.926;2023-02-13T11:49:56;100043.63;;;10.07;68.75
39487;BME280;25173;50.430;18.926;2023-02-13T11:53:06;100035.84;;;10.10;68.89
39487;BME280;25173;50.430;18.926;2023-02-13T11:56:13;100044.13;;;10.22;68.92
39487;BME280;25173;50.430;18.926;2023-02-13T11:59:14;100052.56;;;10.14;68.32
39487;BME280;25173;50.430;18.926;2023-02-13T12:02:42;100044.50;;;10.01;68.68
39487;BME280;25173;50.430;18.926;2023-02-13T12:06:11;100044.22;;;10.09;68.80
39487;BME280;25173;50.430;18.926;2023-02-13T12:09:14;100044.22;;;10.09;68.63
39487;BME280;25173;50.430;18.926;2023-02-13T12:12:26;100037.66;;;9.98;68.75
39487;BME280;25173;50.430;18.926;2023-02-13T12:15:32;100028.94;;;9.90;68.95
39487;BME280;25173;50.430;18.926;2023-02-13T12:18:45;100025.44;;;9.83;68.82
39487;BME280;25173;50.430;18.926;2023-02-13T12:34:47;100035.06;;;9.29;70.30
39487;BME280;25173;50.430;18.926;2023-02-13T12:38:24;100032.44;;;9.16;71.33
39487;BME280;25173;50.430;18.926;2023-02-13T12:42:01;100038.09;;;9.14;71.56
39487;BME280;25173;50.430;18.926;2023-02-13T12:45:20;100038.59;;;8.98;71.53
39487;BME280;25173;50.430;18.926;2023-02-13T12:48:34;100025.72;;;8.87;72.22
39487;BME280;25173;50.430;18.926;2023-02-13T12:58:59;100013.56;;;8.89;72.95
39487;BME280;25173;50.430;18.926;2023-02-13T13:05:31;100021.34;;;9.17;73.37
39487;BME280;25173;50.430;18.926;2023-02-13T13:15:31;100025.44;;;9.33;73.05
39487;BME280;25173;50.430;18.926;2023-02-13T13:28:19;100020.66;;;9.53;72.22
39487;BME280;25173;50.430;18.926;2023-02-13T13:31:22;100006.44;;;9.51;72.07
39487;BME280;25173;50.430;18.926;2023-02-13T13:34:27;100006.09;;;9.41;71.66
39487;BME280;25173;50.430;18.926;2023-02-13T13:37:34;100022.19;;;9.18;71.88
39487;BME280;25173;50.430;18.926;2023-02-13T13:47:25;100029.75;;;8.00;75.47
39487;BME280;25173;50.430;18.926;2023-02-13T13:50:35;100021.47;;;7.69;76.11
39487;BME280;25173;50.430;18.926;2023-02-13T14:03:32;100039.19;;;7.32;76.89
39487;BME280;25173;50.430;18.926;2023-02-13T14:07:12;100027.69;;;7.23;76.90
39487;BME280;25173;50.430;18.926;2023-02-13T14:10:05;100032.69;;;7.26;76.76
39487;BME280;25173;50.430;18.926;2023-02-13T14:13:06;100029.38;;;7.31;76.73
39487;BME280;25173;50.430;18.926;2023-02-13T14:16:10;100040.41;;;7.29;76.30
39487;BME280;25173;50.430;18.926;2023-02-13T14:19:32;100030.59;;;7.22;76.38
39487;BME280;25173;50.430;18.926;2023-02-13T14:22:37;100038.28;;;7.05;76.44
39487;BME280;25173;50.430;18.926;2023-02-13T14:25:38;100041.81;;;6.99;76.82
39487;BME280;25173;50.430;18.926;2023-02-13T14:28:40;100033.88;;;6.91;77.09
39487;BME280;25173;50.430;18.926;2023-02-13T14:32:03;100030.13;;;6.92;77.39
39487;BME280;25173;50.430;18.926;2023-02-13T14:35:26;100028.25;;;6.86;77.55
39487;BME280;25173;50.430;18.926;2023-02-13T14:38:29;100030.31;;;6.84;77.40
39487;BME280;25173;50.430;18.926;2023-02-13T14:41:59;100015.31;;;6.81;77.50
39487;BME280;25173;50.430;18.926;2023-02-13T14:45:04;100018.84;;;6.82;77.19
39487;BME280;25173;50.430;18.926;2023-02-13T14:48:12;100010.13;;;6.86;76.94
39487;BME280;25173;50.430;18.926;2023-02-13T14:51:21;100008.88;;;6.89;76.69
39487;BME280;25173;50.430;18.926;2023-02-13T14:57:39;100009.75;;;6.96;76.49
39487;BME280;25173;50.430;18.926;2023-02-13T15:00:45;100015.78;;;7.05;76.25
39487;BME280;25173;50.430;18.926;2023-02-13T15:03:53;100009.94;;;7.01;75.88
39487;BME280;25173;50.430;18.926;2023-02-13T15:06:58;100000.34;;;7.05;75.92
39487;BME280;25173;50.430;18.926;2023-02-13T15:10:46;99992.22;;;7.12;75.77
39487;BME280;25173;50.430;18.926;2023-02-13T15:13:35;99992.25;;;7.18;75.90
39487;BME280;25173;50.430;18.926;2023-02-13T15:16:36;99999.34;;;7.32;75.78
39487;BME280;25173;50.430;18.926;2023-02-13T15:19:43;99994.97;;;7.38;75.42
39487;BME280;25173;50.430;18.926;2023-02-13T15:22:45;100008.53;;;7.45;75.39
39487;BME280;25173;50.430;18.926;2023-02-13T15:25:47;100002.06;;;7.46;74.84
39487;BME280;25173;50.430;18.926;2023-02-13T15:29:04;100013.31;;;7.43;74.80
39487;BME280;25173;50.430;18.926;2023-02-13T15:32:26;100019.81;;;7.48;74.58
39487;BME280;25173;50.430;18.926;2023-02-13T15:35:32;100018.72;;;7.49;74.58
39487;BME280;25173;50.430;18.926;2023-02-13T15:38:35;100016.06;;;7.56;74.35
39487;BME280;25173;50.430;18.926;2023-02-13T15:41:44;100000.59;;;7.63;74.55
39487;BME280;25173;50.430;18.926;2023-02-13T15:44:50;99997.06;;;7.69;74.18
39487;BME280;25173;50.430;18.926;2023-02-13T15:47:59;100003.09;;;7.64;73.94
39487;BME280;25173;50.430;18.926;2023-02-13T15:51:04;100008.50;;;7.64;73.71
39487;BME280;25173;50.430;18.926;2023-02-13T15:54:24;100003.53;;;7.55;73.96
39487;BME280;25173;50.430;18.926;2023-02-13T15:57:33;99999.56;;;7.51;74.01
39487;BME280;25173;50.430;18.926;2023-02-13T16:00:40;100004.97;;;7.44;74.02
39487;BME280;25173;50.430;18.926;2023-02-13T16:03:43;100001.88;;;7.40;73.97
39487;BME280;25173;50.430;18.926;2023-02-13T16:06:45;99998.94;;;7.35;73.95
39487;BME280;25173;50.430;18.926;2023-02-13T16:09:47;100002.69;;;7.34;74.07
39487;BME280;25173;50.430;18.926;2023-02-13T16:12:47;99996.22;;;7.35;74.00
39487;BME280;25173;50.430;18.926;2023-02-13T16:15:48;99994.97;;;7.38;74.20
39487;BME280;25173;50.430;18.926;2023-02-13T16:18:50;99999.34;;;7.46;74.11
39487;BME280;25173;50.430;18.926;2023-02-13T16:21:52;100000.81;;;7.48;74.12
39487;BME280;25173;50.430;18.926;2023-02-13T16:25:04;100005.59;;;7.53;74.06
39487;BME280;25173;50.430;18.926;2023-02-13T16:28:18;99997.66;;;7.58;73.81
39487;BME280;25173;50.430;18.926;2023-02-13T16:31:20;99998.31;;;7.60;73.28
39487;BME280;25173;50.430;18.926;2023-02-13T16:34:24;100003.09;;;7.58;73.09
39487;BME280;25173;50.430;18.926;2023-02-13T16:37:31;100001.41;;;7.57;72.95
39487;BME280;25173;50.430;18.926;2023-02-13T16:40:34;100011.88;;;7.47;72.87
39487;BME280;25173;50.430;18.926;2023-02-13T16:43:56;100025.63;;;7.52;72.89
39487;BME280;25173;50.430;18.926;2023-02-13T16:46:59;100001.03;;;7.53;73.04
39487;BME280;25173;50.430;18.926;2023-02-13T16:50:00;100001.22;;;7.52;73.03
39487;BME280;25173;50.430;18.926;2023-02-13T16:53:02;100000.19;;;7.53;72.78
39487;BME280;25173;50.430;18.926;2023-02-13T16:56:07;99993.09;;;7.52;72.47
39487;BME280;25173;50.430;18.926;2023-02-13T17:02:32;99988.50;;;7.46;72.17
39487;BME280;25173;50.430;18.926;2023-02-13T17:05:33;99979.75;;;7.44;72.23
39487;BME280;25173;50.430;18.926;2023-02-13T17:08:34;99986.84;;;7.45;71.84
39487;BME280;25173;50.430;18.926;2023-02-13T17:11:35;99985.59;;;7.47;72.08
39487;BME280;25173;50.430;18.926;2023-02-13T17:14:35;99979.75;;;7.50;72.13
39487;BME280;25173;50.430;18.926;2023-02-13T17:17:36;99981.00;;;7.54;72.06
39487;BME280;25173;50.430;18.926;2023-02-13T17:20:40;99985.38;;;7.55;71.37
39487;BME280;25173;50.430;18.926;2023-02-13T17:23:40;99976.84;;;7.45;70.98
39487;BME280;25173;50.430;18.926;2023-02-13T17:26:41;99979.75;;;7.50;71.50
39487;BME280;25173;50.430;18.926;2023-02-13T17:29:41;99979.75;;;7.50;70.75
39487;BME280;25173;50.430;18.926;2023-02-13T17:32:44;99973.28;;;7.45;70.41
39487;BME280;25173;50.430;18.926;2023-02-13T17:35:45;99979.75;;;7.44;70.63
39487;BME280;25173;50.430;18.926;2023-02-13T17:38:46;99985.16;;;7.44;70.63
39487;BME280;25173;50.430;18.926;2023-02-13T17:41:47;99978.72;;;7.45;70.77
39487;BME280;25173;50.430;18.926;2023-02-13T17:44:48;99973.28;;;7.45;70.73
39487;BME280;25173;50.430;18.926;2023-02-13T17:47:48;99976.19;;;7.36;70.19
39487;BME280;25173;50.430;18.926;2023-02-13T17:50:49;99973.06;;;7.26;70.03
39487;BME280;25173;50.430;18.926;2023-02-13T17:53:50;99987.88;;;7.17;70.11
39487;BME280;25173;50.430;18.926;2023-02-13T17:56:50;99987.25;;;7.22;70.37
39487;BME280;25173;50.430;18.926;2023-02-13T17:59:51;99978.09;;;7.23;70.28
39487;BME280;25173;50.430;18.926;2023-02-13T18:02:52;99981.00;;;7.21;70.25
39487;BME280;25173;50.430;18.926;2023-02-13T18:05:53;99967.88;;;7.25;70.61
39487;BME280;25173;50.430;18.926;2023-02-13T18:08:53;99961.81;;;7.29;70.51
39487;BME280;25173;50.430;18.926;2023-02-13T18:11:54;99938.69;;;7.33;70.44
39487;BME280;25173;50.430;18.926;2023-02-13T18:14:55;99920.53;;;7.34;70.31
39487;BME280;25173;50.430;18.926;2023-02-13T18:17:55;99942.63;;;7.37;70.61
39487;BME280;25173;50.430;18.926;2023-02-13T18:20:56;99966.19;;;7.37;70.17
39487;BME280;25173;50.430;18.926;2023-02-13T18:23:57;99968.91;;;7.37;70.33